Weather reports worldwide

Advertisment
St.Catherine`s Point, United Kingdom (3866): temperature & dewpoint: 17.03.2019 09:00:00 - 23.03.2019 09:00:00 (GMT)St.Catherine`s Point, United Kingdom (3866): wind speed & gusts: 17.03.2019 09:00:00 - 23.03.2019 09:00:00 (GMT)St.Catherine`s Point, United Kingdom (3866): wind direction: 17.03.2019 09:00:00 - 23.03.2019 09:00:00 (GMT)St.Catherine`s Point, United Kingdom (3866): reduced air pressure: 17.03.2019 09:00:00 - 23.03.2019 09:00:00 (GMT)St.Catherine`s Point, United Kingdom (3866): precipitation: 17.03.2019 09:00:00 - 23.03.2019 09:00:00 (GMT)
Date & Time tt [°C] td [°C] ff [km/h] ff [kn] fx [km/h] fx [kn] dd ppp [hPa] rr [mm]
23.03.2019 09:00:00 10,1 8,5 15 8 - - NNE 1031,0 0,0
23.03.2019 08:00:00 9,9 8,2 15 8 - - NNE 1030,6 0,0
23.03.2019 07:00:00 9,6 8,1 11 6 - - NNE 1030,4 0,0
23.03.2019 06:00:00 9,6 7,9 15 8 - - N 1029,9 0,0
23.03.2019 05:00:00 9,8 7,8 9 5 - - NNE 1029,4 0,0
23.03.2019 04:00:00 9,3 8,8 9 5 - - WNW 1029,4 0,0
23.03.2019 03:00:00 9,3 8,8 11 6 - - WNW 1029,2 0,0
23.03.2019 02:00:00 9,3 8,8 11 6 - - WNW 1028,9 0,0
23.03.2019 01:00:00 9,3 8,7 8 4 - - W 1029,1 0,0
23.03.2019 00:00:00 9,3 8,7 5 3 - - W 1028,9 0,0
22.03.2019 23:00:00 9,3 8,6 5 3 - - W 1029,1 0,0
22.03.2019 22:00:00 9,4 8,6 8 4 - - W 1029,0 0,0
22.03.2019 21:00:00 9,3 8,5 4 2 - - WNW 1028,8 0,0
22.03.2019 20:00:00 9,3 8,4 9 5 - - W 1028,7 0,0
22.03.2019 19:00:00 9,2 8,2 5 3 - - W 1028,4 0,0
22.03.2019 18:00:00 9,2 8,2 9 5 - - W 1027,9 0,0
22.03.2019 17:00:00 9,3 8,3 8 4 - - WSW 1027,7 0,0
22.03.2019 16:00:00 9,3 8,0 5 3 - - WSW 1027,8 0,0
22.03.2019 15:00:00 9,2 7,7 9 5 - - WSW 1028,2 0,0
22.03.2019 14:00:00 9,3 7,4 5 3 - - WSW 1028,4 0,0
22.03.2019 13:00:00 9,5 7,2 5 3 - - WSW 1028,6 0,0
22.03.2019 12:00:00 9,4 6,9 4 2 - - WSW 1028,9 0,0
22.03.2019 11:00:00 9,3 7,0 8 4 - - WSW 1029,2 0,0
22.03.2019 10:00:00 9,1 7,0 8 4 - - WSW 1029,5 0,0
22.03.2019 09:00:00 9,0 6,8 13 7 - - W 1029,6 0,0
22.03.2019 08:00:00 8,7 7,1 9 5 - - W 1029,6 0,0
22.03.2019 07:00:00 8,7 7,2 8 4 - - W 1029,3 0,0
22.03.2019 06:00:00 8,7 7,2 8 4 - - SW 1029,3 0,0
22.03.2019 05:00:00 8,6 7,0 8 4 - - SSW 1029,4 0,0
22.03.2019 04:00:00 8,7 7,3 9 5 - - SSW 1029,7 0,0
22.03.2019 03:00:00 8,8 7,0 8 4 - - SW 1030,3 0,0
22.03.2019 02:00:00 8,9 7,0 11 6 - - S 1030,6 0,0
22.03.2019 01:00:00 8,8 8,1 15 8 - - SE 1030,5 0,0
22.03.2019 00:00:00 8,4 7,9 8 4 - - E 1030,7 0,0
21.03.2019 23:00:00 8,9 8,4 4 2 - - E 1031,4 0,0
21.03.2019 22:00:00 9,1 8,6 2 1 - - WNW 1032,0 0,0
21.03.2019 21:00:00 9,1 8,6 5 3 - - WNW 1032,5 0,0
21.03.2019 20:00:00 9,1 8,6 5 3 - - W 1032,3 0,0
21.03.2019 19:00:00 9,1 8,5 8 4 - - W 1032,4 0,0
21.03.2019 18:00:00 9,2 8,5 8 4 - - W 1032,2 0,0
21.03.2019 17:00:00 9,4 8,4 5 3 - - WSW 1032,3 0,0
21.03.2019 16:00:00 9,9 8,5 9 5 - - W 1032,4 0,0
21.03.2019 15:00:00 10,1 8,7 13 7 - - WNW 1032,7 0,0
21.03.2019 14:00:00 9,8 9,1 15 8 - - WNW 1033,4 0,0
21.03.2019 13:00:00 10,1 9,7 13 7 - - W 1034,1 0,0
21.03.2019 12:00:00 9,6 9,3 11 6 - - W 1034,6 0,0
21.03.2019 11:00:00 10,0 9,7 11 6 - - W 1034,8 0,0
21.03.2019 10:00:00 9,5 9,3 9 5 - - WNW 1034,7 0,0
21.03.2019 09:00:00 9,2 8,9 9 5 - - WNW 1034,6 0,0
21.03.2019 08:00:00 9,2 8,7 8 4 - - W 1034,4 0,0
21.03.2019 07:00:00 9,0 8,5 4 2 - - W 1034,0 0,0
21.03.2019 06:00:00 8,9 8,5 5 3 - - WNW 1033,7 0,0
21.03.2019 05:00:00 9,0 8,6 5 3 - - W 1033,6 0,0
21.03.2019 04:00:00 9,0 8,6 8 4 - - W 1033,4 0,0
21.03.2019 03:00:00 9,0 8,5 5 3 - - WNW 1033,5 0,0
21.03.2019 02:00:00 9,0 8,5 11 6 - - W 1033,7 0,0
21.03.2019 01:00:00 9,0 8,7 11 6 - - WSW 1034,0 0,0
21.03.2019 00:00:00 8,9 8,6 11 6 - - W 1034,1 0,0
20.03.2019 23:00:00 8,9 8,6 15 8 - - W 1034,1 0,0
20.03.2019 22:00:00 9,0 8,6 18 10 - - W 1034,2 0,0
20.03.2019 21:00:00 9,0 8,5 13 7 - - W 1034,1 0,0
20.03.2019 20:00:00 9,1 8,4 15 8 - - W 1033,9 0,0
20.03.2019 19:00:00 9,1 8,3 18 10 - - W 1033,8 0,0
20.03.2019 18:00:00 9,2 8,4 16 9 - - W 1033,5 0,0
20.03.2019 17:00:00 9,5 9,0 13 7 - - W 1033,3 0,0
20.03.2019 16:00:00 9,6 9,0 8 4 - - WSW 1033,2 0,0
20.03.2019 15:00:00 9,8 9,2 11 6 - - WSW 1033,3 0,0
20.03.2019 14:00:00 10,0 9,3 13 7 - - W 1033,4 0,0
20.03.2019 13:00:00 9,9 9,2 8 4 - - WSW 1033,7 0,0
20.03.2019 12:00:00 9,7 9,2 9 5 - - W 1034,1 0,0
20.03.2019 11:00:00 10,4 10,2 15 8 - - W 1033,8 0,0
20.03.2019 10:00:00 9,5 9,3 13 7 - - WNW 1033,7 0,0
20.03.2019 09:00:00 9,6 9,3 9 5 - - W 1033,3 0,0
20.03.2019 08:00:00 9,4 9,1 11 6 - - W 1032,8 0,0
20.03.2019 07:00:00 9,0 8,8 8 4 - - W 1032,4 0,0
20.03.2019 06:00:00 8,9 8,6 11 6 - - WNW 1032,0 0,0
20.03.2019 05:00:00 9,0 8,6 11 6 - - W 1031,2 0,0
20.03.2019 04:00:00 9,2 8,8 9 5 - - WNW 1031,1 0,0
20.03.2019 03:00:00 9,2 8,7 13 7 - - W 1031,1 0,0
20.03.2019 02:00:00 9,2 8,6 15 8 - - W 1031,3 0,0
20.03.2019 01:00:00 9,2 8,5 15 8 - - W 1031,1 0,0
20.03.2019 00:00:00 9,1 8,4 11 6 - - WNW 1031,2 0,0
19.03.2019 23:00:00 8,9 8,0 9 5 - - WNW 1031,0 0,0
19.03.2019 22:00:00 9,1 8,2 15 8 - - WNW 1031,0 0,0
19.03.2019 21:00:00 9,2 8,7 13 7 - - WNW 1030,3 0,0
19.03.2019 20:00:00 9,2 8,7 13 7 - - W 1030,4 0,0
19.03.2019 19:00:00 9,1 8,6 18 10 - - W 1029,9 0,0
19.03.2019 18:00:00 9,4 8,7 18 10 - - W 1029,1 0,0
19.03.2019 17:00:00 9,5 8,8 18 10 - - W 1028,8 0,0
19.03.2019 16:00:00 9,5 8,7 21 11 - - WSW 1028,6 0,0
19.03.2019 15:00:00 9,7 8,6 15 8 - - WSW 1028,7 0,0
19.03.2019 14:00:00 10,2 8,8 11 6 - - WSW 1028,6 0,0
19.03.2019 13:00:00 11,4 9,5 13 7 - - WSW 1028,7 0,0
19.03.2019 12:00:00 10,6 8,7 8 4 - - WSW 1028,7 0,0
19.03.2019 11:00:00 10,0 8,5 5 3 - - WSW 1028,6 0,0
19.03.2019 10:00:00 9,4 8,2 5 3 - - W 1028,2 0,0
19.03.2019 09:00:00 9,1 7,9 8 4 - - WNW 1027,9 0,0
19.03.2019 08:00:00 8,4 7,3 8 4 - - W 1027,3 0,0
19.03.2019 07:00:00 6,8 6,1 8 4 - - WNW 1026,9 0,0
19.03.2019 06:00:00 6,7 5,8 9 5 - - NW 1026,2 0,0
19.03.2019 05:00:00 6,9 5,7 9 5 - - WNW 1026,1 0,0
19.03.2019 04:00:00 7,7 6,5 15 8 - - W 1025,7 0,0
19.03.2019 03:00:00 7,7 6,4 15 8 - - WNW 1025,5 0,0
19.03.2019 02:00:00 7,9 6,5 13 7 - - WNW 1025,4 0,0
19.03.2019 01:00:00 7,8 6,6 13 7 - - WNW 1025,4 0,0
19.03.2019 00:00:00 8,1 6,8 13 7 - - WNW 1025,2 0,0
18.03.2019 23:00:00 7,8 6,5 9 5 - - NW 1025,0 0,0
18.03.2019 22:00:00 8,3 6,4 13 7 - - WNW 1024,7 0,0
18.03.2019 21:00:00 8,5 6,6 9 5 - - W 1024,5 0,0
18.03.2019 20:00:00 8,2 6,1 13 7 - - WNW 1023,9 0,0
18.03.2019 19:00:00 8,0 6,4 13 7 - - W 1023,6 0,0
18.03.2019 18:00:00 7,9 6,5 15 8 - - W 1023,2 0,0
18.03.2019 17:00:00 7,7 6,3 22 12 - - W 1022,8 0,4
18.03.2019 16:00:00 8,0 6,5 21 11 - - W 1022,4 0,2
18.03.2019 15:00:00 7,8 5,5 26 14 - - W 1022,5 0,2
18.03.2019 14:00:00 8,8 6,2 16 9 - - W 1022,2 0,0
18.03.2019 13:00:00 7,0 5,4 9 5 - - W 1022,6 1,2
18.03.2019 12:00:00 9,4 5,6 21 11 - - W 1022,3 0,0
18.03.2019 11:00:00 9,5 6,4 21 11 - - W 1022,4 0,0
18.03.2019 10:00:00 8,5 5,2 22 12 - - WNW 1022,0 0,0
18.03.2019 09:00:00 7,8 5,0 18 10 - - WNW 1021,5 0,0
18.03.2019 08:00:00 7,1 4,7 16 9 - - WNW 1021,2 0,0
18.03.2019 07:00:00 6,7 4,4 18 10 - - NW 1020,6 0,0
18.03.2019 06:00:00 6,3 4,1 15 8 - - NW 1020,1 0,0
18.03.2019 05:00:00 6,2 3,7 15 8 - - NW 1019,7 0,0
18.03.2019 04:00:00 6,4 3,7 15 8 - - WNW 1019,0 0,0
18.03.2019 03:00:00 6,0 3,2 16 9 - - NW 1018,5 0,0
18.03.2019 02:00:00 6,6 4,1 18 10 - - NW 1018,0 0,0
18.03.2019 01:00:00 6,5 4,3 21 11 - - WNW 1017,3 0,0
18.03.2019 00:00:00 6,5 4,0 16 9 - - NW 1016,6 0,0
17.03.2019 23:00:00 6,6 3,8 18 10 - - WNW 1016,0 0,0
17.03.2019 22:00:00 7,2 3,9 16 9 - - WNW 1015,2 0,0
17.03.2019 21:00:00 7,7 4,7 29 16 46 25 W 1014,1 0,0
17.03.2019 20:00:00 7,8 4,6 29 16 52 28 WNW 1013,3 0,0
17.03.2019 19:00:00 7,1 3,3 41 22 59 32 W 1012,2 0,0
17.03.2019 18:00:00 8,7 1,8 34 18 50 27 W 1011,4 0,0
17.03.2019 17:00:00 9,3 1,7 37 20 54 29 W 1010,4 0,0
17.03.2019 16:00:00 9,1 4,8 42 23 59 32 W 1009,7 0,0
17.03.2019 15:00:00 8,7 3,9 41 22 54 29 W 1009,3 0,0
17.03.2019 14:00:00 8,3 2,9 35 19 57 31 W 1009,0 0,0
17.03.2019 13:00:00 8,8 2,1 39 21 52 28 W 1008,8 0,0
17.03.2019 12:00:00 7,5 1,9 35 19 55 30 W 1008,6 0,0
17.03.2019 11:00:00 7,4 1,5 34 18 48 26 W 1008,0 0,0
17.03.2019 10:00:00 6,8 1,7 34 18 46 25 W 1007,4 0,0
17.03.2019 09:00:00 6,2 2,2 37 20 50 27 W 1006,4 0,0

tt = temperature
td = dewpoint
ff = wind speed
fx = gusts
dd = wind direction
ppp = reduced air pressure
rr = precipitation

Next stations